Time;durP1;ratioP1;P1;durP2;ratioP2;P2;SDS_P1;SDS_P2;PMS_P1;PMS_P2;Temp;Humidity;BMP_temperature;BMP_pressure;BME280_temperature;BME280_humidity;BME280_pressure;Samples;Min_cycle;Max_cycle;Signal;HPM_P1;HPM_P2
2022/03/27 00:01:00;;;;;;;27.83;26.33;;;19.10;50.30;;;;;;5093016;28;20848;-46
2022/03/27 00:03:27;;;;;;;27.70;26.33;;;19.10;50.40;;;;;;5092852;28;20887;-46
2022/03/27 00:05:53;;;;;;;26.53;25.20;;;19.10;50.50;;;;;;5092370;28;20451;-46
2022/03/27 00:08:20;;;;;;;25.77;24.50;;;19.10;50.60;;;;;;5092868;28;20442;-46
2022/03/27 00:13:32;;;;;;;27.20;25.80;;;19.00;50.90;;;;;;5092898;28;20430;-46
2022/03/27 00:15:59;;;;;;;27.30;25.90;;;19.00;50.90;;;;;;5092104;28;20443;-46
2022/03/27 00:18:26;;;;;;;26.60;25.30;;;19.00;51.10;;;;;;5092714;28;20446;-46
2022/03/27 00:20:53;;;;;;;27.90;26.50;;;18.90;51.30;;;;;;5092754;28;20800;-46
2022/03/27 00:23:20;;;;;;;26.70;25.40;;;18.90;51.60;;;;;;5092462;28;20446;-46
2022/03/27 00:25:50;;;;;;;26.63;25.33;;;18.80;51.70;;;;;;5092017;28;20451;-47
2022/03/27 00:28:17;;;;;;;25.90;24.70;;;18.80;51.80;;;;;;5092167;28;20478;-46
2022/03/27 00:30:44;;;;;;;26.37;25.10;;;18.80;51.90;;;;;;5092477;28;20446;-46
2022/03/27 00:33:11;;;;;;;27.67;26.27;;;18.80;52.00;;;;;;5092381;28;20450;-46
2022/03/27 00:35:37;;;;;;;26.30;25.00;;;18.80;52.00;;;;;;5091323;28;20461;-46
2022/03/27 00:38:04;;;;;;;26.13;25.03;;;18.80;52.00;;;;;;5092282;28;20463;-46
2022/03/27 00:40:31;;;;;;;27.73;26.37;;;18.80;52.00;;;;;;5092475;28;20477;-46
2022/03/27 00:42:59;;;;;;;27.20;25.70;;;18.80;52.10;;;;;;5092191;28;20458;-46
2022/03/27 00:45:26;;;;;;;26.93;25.43;;;18.80;52.30;;;;;;5091779;28;20442;-46
2022/03/27 00:47:54;;;;;;;27.23;25.63;;;18.80;52.30;;;;;;5091953;28;20844;-46
2022/03/27 00:50:21;;;;;;;28.50;26.70;;;18.70;52.50;;;;;;5092090;28;20496;-47
2022/03/27 00:52:48;;;;;;;29.00;27.60;;;18.70;52.90;;;;;;5091803;28;20443;-47
2022/03/27 00:55:15;;;;;;;26.20;25.10;;;18.70;53.00;;;;;;5091926;28;20458;-50
2022/03/27 00:57:42;;;;;;;27.23;25.70;;;18.70;53.30;;;;;;5091801;28;20462;-47
2022/03/27 01:00:20;;;;;;;27.30;25.90;;;18.60;53.30;;;;;;5092076;28;20453;-46
2022/03/27 01:02:47;;;;;;;25.07;23.77;;;18.60;53.40;;;;;;5091904;28;20442;-51
2022/03/27 01:05:16;;;;;;;26.60;24.90;;;18.50;53.60;;;;;;5091546;28;20443;-46
2022/03/27 01:07:42;;;;;;;26.13;24.73;;;18.50;53.80;;;;;;5091655;28;20490;-46
2022/03/27 01:10:08;;;;;;;27.03;25.53;;;18.50;53.90;;;;;;5091938;28;20446;-46
2022/03/27 01:12:39;;;;;;;26.33;25.03;;;18.50;54.10;;;;;;5091761;28;20444;-46
2022/03/27 01:15:22;;;;;;;26.13;24.83;;;18.50;54.20;;;;;;5091524;28;20520;-46
2022/03/27 01:17:49;;;;;;;26.40;24.90;;;18.30;54.50;;;;;;5091749;28;20458;-46
2022/03/27 01:20:23;;;;;;;24.67;23.57;;;18.40;54.80;;;;;;5091652;28;20446;-46
2022/03/27 01:22:50;;;;;;;24.23;23.13;;;18.40;54.70;;;;;;5091561;28;20538;-46
2022/03/27 01:25:17;;;;;;;26.30;24.80;;;18.40;54.90;;;;;;5071432;28;20452;-46
2022/03/27 01:27:43;;;;;;;25.40;24.20;;;18.30;55.00;;;;;;5071208;28;20487;-46
2022/03/27 01:30:11;;;;;;;26.13;24.83;;;18.30;55.00;;;;;;5089643;28;20443;-46
2022/03/27 01:32:38;;;;;;;26.60;25.30;;;18.40;55.20;;;;;;5091476;28;20447;-46
2022/03/27 01:35:06;;;;;;;26.67;25.40;;;18.30;55.20;;;;;;5091382;28;20454;-46
2022/03/27 01:37:34;;;;;;;27.00;25.50;;;18.30;55.50;;;;;;5091299;28;20462;-46
2022/03/27 01:40:01;;;;;;;27.30;25.90;;;18.30;55.70;;;;;;5091436;28;20447;-46
2022/03/27 01:42:28;;;;;;;26.23;24.83;;;18.30;55.70;;;;;;5091565;28;20439;-46
2022/03/27 01:44:55;;;;;;;26.30;24.90;;;18.30;55.80;;;;;;5091410;28;20447;-46
2022/03/27 01:47:21;;;;;;;25.00;23.80;;;18.30;55.90;;;;;;5093801;28;20486;-47
2022/03/27 01:49:48;;;;;;;26.00;24.60;;;18.20;55.90;;;;;;5095316;28;20447;-48
2022/03/27 01:52:16;;;;;;;24.27;23.17;;;18.20;56.00;;;;;;5095461;28;20435;-51
2022/03/27 01:54:44;;;;;;;25.37;24.07;;;18.20;56.20;;;;;;5095465;28;20446;-46
2022/03/27 01:57:11;;;;;;;25.47;24.27;;;18.20;56.30;;;;;;5094801;28;20469;-46
2022/03/27 01:59:38;;;;;;;24.67;23.37;;;18.20;56.10;;;;;;5095290;28;20929;-46
2022/03/27 02:02:05;;;;;;;24.60;23.30;;;18.30;55.90;;;;;;5095376;28;20442;-46
2022/03/27 02:04:32;;;;;;;25.20;24.10;;;18.30;55.90;;;;;;5095316;28;20446;-47
2022/03/27 02:06:59;;;;;;;25.10;24.00;;;18.40;55.70;;;;;;5094583;28;20478;-46
2022/03/27 02:09:26;;;;;;;25.20;24.00;;;18.40;55.80;;;;;;5095197;28;20940;-47
2022/03/27 02:11:54;;;;;;;24.80;23.70;;;18.40;55.60;;;;;;5095048;28;20446;-46
2022/03/27 02:14:21;;;;;;;24.53;23.33;;;18.50;55.50;;;;;;5094970;28;20442;-46
2022/03/27 02:16:48;;;;;;;25.57;24.17;;;18.50;55.80;;;;;;5094549;28;20468;-50
2022/03/27 02:19:14;;;;;;;24.00;22.90;;;18.50;55.80;;;;;;5094962;28;20805;-46
2022/03/27 02:21:43;;;;;;;24.40;23.40;;;18.50;55.90;;;;;;5094897;28;20454;-46
2022/03/27 02:24:10;;;;;;;23.33;22.33;;;18.50;56.10;;;;;;5094924;28;20472;-46
2022/03/27 02:26:44;;;;;;;25.90;24.17;;;18.40;55.90;;;;;;5094294;28;20540;-46
2022/03/27 02:29:13;;;;;;;25.97;24.70;;;18.50;55.80;;;;;;5094809;28;20858;-46
2022/03/27 02:31:40;;;;;;;25.40;24.20;;;18.50;55.80;;;;;;5094735;28;20949;-46
2022/03/27 02:34:06;;;;;;;25.73;24.50;;;18.50;56.20;;;;;;5094738;28;20450;-47
2022/03/27 02:36:33;;;;;;;25.63;24.50;;;18.50;56.30;;;;;;5094057;28;20477;-48
2022/03/27 02:39:00;;;;;;;24.70;23.70;;;18.40;56.40;;;;;;5094613;28;20469;-46
2022/03/27 02:41:27;;;;;;;25.27;24.10;;;18.40;56.70;;;;;;5094572;28;20529;-46
2022/03/27 02:43:53;;;;;;;25.53;24.43;;;18.40;57.00;;;;;;5094408;28;20451;-46
2022/03/27 02:46:21;;;;;;;26.83;25.40;;;18.30;57.30;;;;;;5093900;28;20485;-47
2022/03/27 02:48:48;;;;;;;26.00;24.70;;;18.30;57.20;;;;;;5094531;28;20482;-46
2022/03/27 02:51:15;;;;;;;26.13;24.83;;;18.20;57.60;;;;;;5094435;28;20451;-46
2022/03/27 02:53:42;;;;;;;25.30;24.10;;;18.20;58.10;;;;;;5094328;28;20855;-46
2022/03/27 02:56:09;;;;;;;26.40;25.00;;;18.20;58.20;;;;;;5093860;28;20471;-50
2022/03/27 02:58:36;;;;;;;26.37;25.07;;;18.20;58.00;;;;;;5093605;28;20476;-46
2022/03/27 03:01:04;;;;;;;26.63;25.23;;;18.20;58.00;;;;;;5094185;28;20438;-46
2022/03/27 03:03:32;;;;;;;26.77;25.47;;;18.20;57.90;;;;;;5093747;28;20816;-46
2022/03/27 03:06:02;;;;;;;27.27;25.97;;;18.30;57.60;;;;;;5093558;28;20504;-49
2022/03/27 03:08:29;;;;;;;27.47;26.07;;;18.30;57.60;;;;;;5093969;28;20564;-46
2022/03/27 03:10:57;;;;;;;27.17;25.87;;;18.30;57.50;;;;;;5094025;28;20525;-46
2022/03/27 03:13:24;;;;;;;26.83;25.50;;;18.30;57.40;;;;;;5093583;28;20446;-46
2022/03/27 03:15:52;;;;;;;28.13;26.50;;;18.40;57.40;;;;;;5093672;28;20447;-50
2022/03/27 03:18:19;;;;;;;26.93;25.73;;;18.30;58.00;;;;;;5093804;28;20559;-46
2022/03/27 03:20:47;;;;;;;27.33;26.13;;;18.20;58.30;;;;;;5093803;28;20450;-47
2022/03/27 03:23:14;;;;;;;27.93;26.60;;;18.10;58.60;;;;;;5093722;28;20449;-47
2022/03/27 03:25:42;;;;;;;27.20;25.90;;;18.10;58.80;;;;;;5093331;28;20446;-46
2022/03/27 03:28:09;;;;;;;25.00;24.00;;;18.10;58.90;;;;;;5093552;28;20489;-47
2022/03/27 03:30:35;;;;;;;28.13;26.53;;;18.10;59.10;;;;;;5093554;28;20453;-46
2022/03/27 03:33:03;;;;;;;28.40;26.90;;;18.10;59.20;;;;;;5093486;28;20937;-46
2022/03/27 03:35:29;;;;;;;29.70;28.13;;;18.10;59.30;;;;;;5092257;28;20524;-46
2022/03/27 03:37:58;;;;;;;27.80;26.37;;;18.00;59.30;;;;;;5093392;28;20820;-46
2022/03/27 03:40:25;;;;;;;27.43;26.03;;;18.10;59.20;;;;;;5093421;28;20485;-46
2022/03/27 03:42:52;;;;;;;27.63;26.23;;;18.10;59.10;;;;;;5093249;28;20746;-47
2022/03/27 03:45:19;;;;;;;26.27;25.07;;;18.10;59.30;;;;;;5092974;28;20454;-46
2022/03/27 03:47:46;;;;;;;28.27;26.97;;;18.10;59.50;;;;;;5092975;28;20486;-48
2022/03/27 03:50:13;;;;;;;28.37;26.87;;;18.10;59.50;;;;;;5093401;28;20446;-47
2022/03/27 03:52:40;;;;;;;28.20;26.77;;;18.10;59.30;;;;;;5093201;28;20453;-51
2022/03/27 03:55:09;;;;;;;28.50;27.00;;;18.00;59.70;;;;;;5092853;28;20450;-46
2022/03/27 03:57:36;;;;;;;29.40;27.83;;;18.10;59.50;;;;;;5092622;28;20992;-50
2022/03/27 04:00:04;;;;;;;28.67;27.17;;;18.00;59.90;;;;;;5093200;28;20442;-46
2022/03/27 04:02:31;;;;;;;29.03;27.60;;;17.90;60.80;;;;;;5092998;28;20821;-46
2022/03/27 04:05:00;;;;;;;30.13;28.50;;;17.80;61.50;;;;;;5092419;28;20442;-46
2022/03/27 04:07:27;;;;;;;28.77;27.17;;;17.80;61.80;;;;;;5092361;28;20493;-47
2022/03/27 04:09:54;;;;;;;30.17;28.53;;;17.80;62.20;;;;;;5092015;28;20450;-46
2022/03/27 04:12:22;;;;;;;31.97;30.13;;;17.70;62.10;;;;;;5092751;28;20447;-49
2022/03/27 04:14:49;;;;;;;30.67;29.07;;;17.70;62.50;;;;;;5092492;28;20846;-48
2022/03/27 04:17:16;;;;;;;30.63;28.90;;;17.70;63.10;;;;;;5092277;28;20544;-47
2022/03/27 04:19:43;;;;;;;30.30;28.50;;;17.60;63.60;;;;;;5092720;28;20859;-50
2022/03/27 04:22:09;;;;;;;32.60;30.70;;;17.60;65.30;;;;;;5092598;28;20450;-47
2022/03/27 04:24:36;;;;;;;30.93;29.03;;;17.50;64.80;;;;;;5092224;28;20442;-46
2022/03/27 04:27:03;;;;;;;31.27;29.57;;;17.50;65.20;;;;;;5092260;28;20801;-49
2022/03/27 04:29:31;;;;;;;31.13;29.23;;;17.50;65.70;;;;;;5092429;28;20501;-46
2022/03/27 04:31:58;;;;;;;32.87;30.87;;;17.50;65.00;;;;;;5092493;28;20447;-46
2022/03/27 04:34:25;;;;;;;31.40;29.40;;;17.60;65.50;;;;;;5091987;28;20443;-46
2022/03/27 04:36:52;;;;;;;31.50;29.60;;;17.50;65.40;;;;;;5092093;28;20463;-47
2022/03/27 04:39:19;;;;;;;30.70;28.90;;;17.50;66.10;;;;;;5092311;28;20937;-46
2022/03/27 04:41:46;;;;;;;30.40;28.63;;;17.50;66.10;;;;;;5092247;28;20940;-48
2022/03/27 04:44:13;;;;;;;33.33;31.33;;;17.50;66.00;;;;;;5091948;28;20476;-47
2022/03/27 04:46:41;;;;;;;32.73;30.83;;;17.50;66.40;;;;;;5091864;28;20841;-46
2022/03/27 04:49:07;;;;;;;30.80;28.87;;;17.40;66.60;;;;;;5092042;28;20475;-49
2022/03/27 04:51:34;;;;;;;32.60;30.60;;;17.40;67.00;;;;;;5091987;28;20949;-47
2022/03/27 04:54:01;;;;;;;32.37;30.33;;;17.40;67.60;;;;;;5091750;28;20447;-46
2022/03/27 04:56:28;;;;;;;33.63;31.20;;;17.30;68.40;;;;;;5091648;28;20469;-51
2022/03/27 04:58:54;;;;;;;34.10;31.90;;;17.30;68.60;;;;;;5091906;28;20442;-48
2022/03/27 05:01:21;;;;;;;31.73;29.77;;;17.30;69.70;;;;;;5092000;28;20787;-46
2022/03/27 05:03:49;;;;;;;35.10;32.90;;;17.30;69.80;;;;;;5091665;28;20454;-48
2022/03/27 05:06:16;;;;;;;35.50;33.40;;;17.30;70.50;;;;;;5091519;28;20465;-50
2022/03/27 05:08:44;;;;;;;36.20;33.90;;;17.30;71.30;;;;;;5091701;28;20899;-46
2022/03/27 05:11:11;;;;;;;33.33;31.43;;;17.20;72.20;;;;;;5091897;28;20510;-46
2022/03/27 05:13:38;;;;;;;37.07;34.77;;;17.20;72.30;;;;;;5091409;28;20934;-46
2022/03/27 05:16:05;;;;;;;35.40;33.07;;;17.20;73.30;;;;;;5091272;28;20470;-47
2022/03/27 05:18:32;;;;;;;36.07;33.80;;;17.20;74.00;;;;;;5091654;28;20434;-46
2022/03/27 05:21:00;;;;;;;36.97;34.47;;;17.10;74.70;;;;;;5091495;28;20447;-47
2022/03/27 05:23:28;;;;;;;33.90;31.80;;;17.20;75.90;;;;;;5091414;28;20448;-47
2022/03/27 05:25:54;;;;;;;34.00;31.70;;;17.20;75.30;;;;;;5091334;28;20451;-46
2022/03/27 05:28:21;;;;;;;33.30;31.20;;;17.10;77.00;;;;;;5091388;28;20478;-47
2022/03/27 05:30:48;;;;;;;31.80;29.83;;;17.20;75.40;;;;;;5091601;28;20545;-46
2022/03/27 05:33:15;;;;;;;34.20;32.10;;;17.30;74.00;;;;;;5091262;28;20454;-46
2022/03/27 05:35:42;;;;;;;34.67;32.10;;;17.30;76.00;;;;;;5091238;28;20538;-46
2022/03/27 05:38:10;;;;;;;35.97;33.70;;;17.30;74.10;;;;;;5091503;28;20442;-49
2022/03/27 05:40:37;;;;;;;39.37;36.60;;;17.50;72.50;;;;;;5091401;28;20453;-46
2022/03/27 05:43:05;;;;;;;36.00;33.63;;;17.50;74.50;;;;;;5091184;28;20813;-46
2022/03/27 05:45:31;;;;;;;33.83;31.70;;;17.50;74.00;;;;;;5091251;28;21158;-46
2022/03/27 05:47:58;;;;;;;37.47;35.20;;;17.40;74.60;;;;;;5091295;28;20465;-47
2022/03/27 05:50:25;;;;;;;37.43;35.03;;;17.40;76.00;;;;;;5091891;28;20880;-49
2022/03/27 05:52:53;;;;;;;38.87;36.30;;;17.40;77.30;;;;;;5091209;28;20474;-47
2022/03/27 05:55:22;;;;;;;37.80;35.20;;;17.30;78.80;;;;;;5090873;28;20470;-48
2022/03/27 05:57:49;;;;;;;37.67;35.33;;;17.30;77.80;;;;;;5091229;28;20469;-47
2022/03/27 06:00:19;;;;;;;34.90;32.57;;;17.30;80.70;;;;;;5091257;28;20450;-48
2022/03/27 06:02:46;;;;;;;35.17;32.87;;;17.20;80.60;;;;;;5090966;28;20537;-47
2022/03/27 06:05:13;;;;;;;34.30;32.20;;;17.20;83.20;;;;;;5091217;28;20470;-47
2022/03/27 06:07:44;;;;;;;36.80;34.10;;;17.10;84.20;;;;;;5091131;28;20462;-48
2022/03/27 06:10:11;;;;;;;32.63;30.70;;;17.10;86.50;;;;;;5091052;28;20989;-48
2022/03/27 06:12:40;;;;;;;37.33;34.57;;;17.10;84.80;;;;;;5090948;28;20504;-48
2022/03/27 06:15:07;;;;;;;37.30;34.80;;;17.20;84.40;;;;;;5091311;28;20451;-48
2022/03/27 06:17:40;;;;;;;36.97;34.53;;;17.20;85.40;;;;;;5090853;28;20463;-52
2022/03/27 06:20:08;;;;;;;34.67;32.67;;;17.20;84.20;;;;;;5091118;28;20450;-49
2022/03/27 06:22:35;;;;;;;34.97;32.77;;;17.30;82.80;;;;;;5090750;28;20957;-50
2022/03/27 06:25:02;;;;;;;34.17;32.17;;;17.50;80.20;;;;;;5091052;28;20960;-49
2022/03/27 06:27:28;;;;;;;34.40;31.63;;;17.50;80.80;;;;;;5090799;28;20516;-48
2022/03/27 06:29:56;;;;;;;35.10;33.10;;;17.40;82.00;;;;;;5090514;28;20474;-47
2022/03/27 06:32:26;;;;;;;37.00;34.60;;;17.40;84.10;;;;;;5091933;28;20458;-47
2022/03/27 06:34:56;;;;;;;34.30;32.00;;;17.40;83.90;;;;;;5094584;28;21004;-47
2022/03/27 06:37:23;;;;;;;33.67;31.30;;;17.40;84.40;;;;;;5094324;28;20462;-47
2022/03/27 06:39:50;;;;;;;34.73;32.60;;;17.30;85.50;;;;;;5094372;28;20446;-48
2022/03/27 06:42:17;;;;;;;34.27;32.07;;;17.30;85.70;;;;;;5094543;28;20442;-48
2022/03/27 06:44:43;;;;;;;36.70;34.40;;;17.40;86.20;;;;;;5094493;28;20531;-47
2022/03/27 06:47:11;;;;;;;37.10;34.57;;;17.40;84.60;;;;;;5094194;28;20847;-47
2022/03/27 06:49:38;;;;;;;34.47;32.27;;;17.50;84.10;;;;;;5093988;28;20544;-47
2022/03/27 06:52:06;;;;;;;34.60;32.30;;;17.50;84.80;;;;;;5094072;28;20470;-47
2022/03/27 06:54:33;;;;;;;34.03;31.63;;;17.50;84.70;;;;;;5094364;28;20447;-47
2022/03/27 06:57:00;;;;;;;34.83;32.60;;;17.50;85.40;;;;;;5094018;28;20462;-47
2022/03/27 06:59:27;;;;;;;35.23;32.93;;;17.50;85.00;;;;;;5093905;28;20439;-47
2022/03/27 07:04:39;;;;;;;34.50;32.43;;;17.60;84.80;;;;;;5094199;28;20418;-48
2022/03/27 07:07:06;;;;;;;34.77;32.67;;;17.60;85.00;;;;;;5093599;28;20466;-47
2022/03/27 07:09:33;;;;;;;37.20;34.80;;;17.60;85.10;;;;;;5093694;28;20483;-47
2022/03/27 07:11:59;;;;;;;34.33;31.87;;;17.70;86.00;;;;;;5093905;28;20474;-48
2022/03/27 07:14:26;;;;;;;36.13;33.73;;;17.70;88.00;;;;;;5093915;28;20438;-47
2022/03/27 07:16:53;;;;;;;37.77;35.37;;;17.70;88.70;;;;;;5093620;28;20474;-47
2022/03/27 07:19:20;;;;;;;39.23;36.33;;;17.80;88.60;;;;;;5093477;28;20438;-48
2022/03/27 07:21:48;;;;;;;37.43;35.13;;;17.90;88.70;;;;;;5093841;28;20443;-47
2022/03/27 07:24:14;;;;;;;34.43;32.23;;;18.00;87.60;;;;;;5093615;28;20454;-47
2022/03/27 07:26:43;;;;;;;36.93;34.63;;;18.00;87.50;;;;;;5093252;28;20471;-47
2022/03/27 07:29:11;;;;;;;39.30;36.50;;;18.20;87.30;;;;;;5093660;28;20486;-51
2022/03/27 07:31:38;;;;;;;38.73;36.47;;;18.10;88.00;;;;;;5093658;28;20696;-47
2022/03/27 07:34:05;;;;;;;29.23;27.53;;;18.10;89.20;;;;;;5093504;28;20442;-50
2022/03/27 07:36:32;;;;;;;29.43;27.73;;;18.20;90.40;;;;;;5093143;28;20474;-50
2022/03/27 07:39:00;;;;;;;31.53;29.37;;;18.40;89.90;;;;;;5092987;28;20461;-52
2022/03/27 07:41:27;;;;;;;30.03;28.07;;;18.60;88.90;;;;;;5093541;28;20446;-48
2022/03/27 07:43:54;;;;;;;30.80;29.10;;;18.70;87.60;;;;;;5093306;28;20463;-49
2022/03/27 07:46:21;;;;;;;33.40;31.20;;;18.70;87.10;;;;;;5092956;28;20462;-49
2022/03/27 07:48:47;;;;;;;29.30;27.60;;;18.80;85.60;;;;;;5092787;28;20826;-47
2022/03/27 07:51:14;;;;;;;30.60;29.20;;;18.90;84.80;;;;;;5093208;28;20535;-48
2022/03/27 07:53:41;;;;;;;31.50;30.00;;;19.00;84.60;;;;;;5093110;28;20813;-47
2022/03/27 07:56:09;;;;;;;30.60;29.10;;;19.00;83.50;;;;;;5092798;28;20989;-47
2022/03/27 07:58:36;;;;;;;31.90;30.23;;;19.10;82.30;;;;;;5092640;28;20458;-47
2022/03/27 08:01:04;;;;;;;31.80;30.00;;;19.10;81.40;;;;;;5093084;28;20455;-47
2022/03/27 08:03:30;;;;;;;31.17;29.27;;;19.30;81.00;;;;;;5093077;28;20438;-48
2022/03/27 08:05:57;;;;;;;30.90;29.20;;;19.30;79.00;;;;;;5092643;28;20442;-49
2022/03/27 08:08:24;;;;;;;29.33;28.00;;;19.40;78.70;;;;;;5092386;28;20941;-48
2022/03/27 08:10:51;;;;;;;31.50;29.77;;;19.40;81.50;;;;;;5092906;28;20454;-49
2022/03/27 08:13:19;;;;;;;31.17;29.13;;;19.50;86.50;;;;;;5092745;28;20451;-49
2022/03/27 08:15:45;;;;;;;32.10;29.97;;;19.50;93.00;;;;;;5092413;28;20934;-48
2022/03/27 08:18:13;;;;;;;32.00;29.90;;;19.70;99.90;;;;;;5092478;28;20446;-48
2022/03/27 08:20:41;;;;;;;32.43;30.60;;;19.80;99.90;;;;;;5092571;28;20443;-49
2022/03/27 08:23:08;;;;;;;30.90;29.10;;;19.80;99.90;;;;;;5092558;28;20480;-49
2022/03/27 08:28:32;;;;;;;29.77;27.77;;;19.90;99.90;;;;;;5029378;28;20432;-49
2022/03/27 08:30:59;;;;;;;30.80;28.23;;;20.00;99.90;;;;;;5061895;28;20212;-50
2022/03/27 08:33:26;;;;;;;29.97;27.77;;;20.00;99.90;;;;;;5072226;28;20439;-54
2022/03/27 08:35:52;;;;;;;30.33;27.97;;;20.00;99.90;;;;;;5074680;28;20465;-50
2022/03/27 08:38:20;;;;;;;32.00;29.73;;;20.00;99.90;;;;;;5092451;28;20446;-51
2022/03/27 08:40:47;;;;;;;34.60;31.90;;;20.00;99.90;;;;;;5092256;28;20518;-53
2022/03/27 08:43:15;;;;;;;31.73;29.40;;;20.00;99.90;;;;;;5092197;28;20455;-55
2022/03/27 08:45:44;;;;;;;31.27;28.93;;;20.20;99.90;;;;;;5091806;28;20470;-51
2022/03/27 08:48:13;;;;;;;31.77;29.83;;;20.30;99.40;;;;;;5092179;28;20447;-51
2022/03/27 08:50:45;;;;;;;33.13;30.67;;;20.30;99.00;;;;;;5092072;28;21006;-51
2022/03/27 08:53:12;;;;;;;31.50;29.70;;;20.30;98.40;;;;;;5092146;28;20450;-51
2022/03/27 08:55:46;;;;;;;31.53;29.30;;;20.40;98.20;;;;;;5091111;28;20438;-51
2022/03/27 08:58:13;;;;;;;29.73;28.00;;;20.40;97.50;;;;;;5092006;28;20492;-51
2022/03/27 09:00:41;;;;;;;29.63;27.80;;;20.50;96.50;;;;;;5091936;28;20451;-49
2022/03/27 09:03:09;;;;;;;29.97;28.13;;;20.60;95.80;;;;;;5091894;28;20533;-49
2022/03/27 09:05:37;;;;;;;30.40;28.60;;;20.60;95.50;;;;;;5091183;28;20438;-50
2022/03/27 09:08:07;;;;;;;30.97;29.13;;;20.60;95.10;;;;;;5091743;28;20470;-50
2022/03/27 09:10:35;;;;;;;34.63;31.63;;;20.60;94.90;;;;;;5091788;28;20917;-52
2022/03/27 09:13:02;;;;;;;29.87;28.27;;;20.60;94.60;;;;;;5091784;28;20445;-51
2022/03/27 09:15:29;;;;;;;30.30;28.50;;;20.60;94.40;;;;;;5090697;28;20450;-52
2022/03/27 09:18:00;;;;;;;30.33;28.27;;;20.60;93.90;;;;;;5090465;28;20845;-50
2022/03/27 09:20:34;;;;;;;31.07;29.17;;;20.60;93.60;;;;;;5091119;28;20446;-49
2022/03/27 09:23:16;;;;;;;29.87;28.27;;;20.60;93.70;;;;;;5091634;28;20474;-53
2022/03/27 09:25:45;;;;;;;30.97;29.03;;;20.60;93.50;;;;;;5091510;28;20442;-52
2022/03/27 09:28:12;;;;;;;29.47;28.07;;;20.60;93.20;;;;;;5091318;28;20516;-49
2022/03/27 09:30:39;;;;;;;30.57;28.40;;;20.60;92.90;;;;;;5091584;28;20583;-56
2022/03/27 09:33:06;;;;;;;31.97;30.13;;;20.60;92.60;;;;;;5091732;28;20450;-56
2022/03/27 09:35:36;;;;;;;30.20;28.70;;;20.60;92.40;;;;;;5091273;28;20962;-49
2022/03/27 09:38:12;;;;;;;29.80;28.10;;;20.60;92.30;;;;;;5091213;28;20471;-50
2022/03/27 09:40:39;;;;;;;30.00;28.50;;;20.60;91.40;;;;;;5091467;28;20954;-49
2022/03/27 09:43:11;;;;;;;30.07;28.40;;;20.70;91.80;;;;;;5091277;28;20474;-51
2022/03/27 09:45:38;;;;;;;30.97;29.20;;;20.70;91.40;;;;;;5091306;28;20451;-52
2022/03/27 09:48:09;;;;;;;29.73;28.30;;;20.70;91.10;;;;;;5090979;28;20470;-49
2022/03/27 09:50:39;;;;;;;29.67;28.23;;;20.70;90.80;;;;;;5090542;28;20473;-54
2022/03/27 09:53:20;;;;;;;29.70;28.23;;;20.70;90.50;;;;;;5091399;28;20453;-50
2022/03/27 09:55:51;;;;;;;29.10;27.40;;;20.80;90.20;;;;;;5091139;28;20500;-51
2022/03/27 09:58:33;;;;;;;31.80;30.00;;;20.80;88.80;;;;;;5091265;28;20447;-51
2022/03/27 10:01:08;;;;;;;30.57;29.03;;;20.80;88.80;;;;;;5090553;28;20445;-55
2022/03/27 10:03:36;;;;;;;31.30;29.30;;;20.80;88.50;;;;;;5091128;28;20449;-47
2022/03/27 10:06:04;;;;;;;30.47;28.53;;;20.80;86.90;;;;;;5090992;28;20459;-47
2022/03/27 10:08:31;;;;;;;29.37;27.97;;;20.80;85.40;;;;;;5094059;28;20450;-47
2022/03/27 10:10:59;;;;;;;28.50;27.10;;;20.80;84.30;;;;;;5094791;28;20482;-47
2022/03/27 10:13:30;;;;;;;27.07;25.67;;;20.80;83.30;;;;;;5095146;28;20446;-48
2022/03/27 10:15:59;;;;;;;29.20;27.60;;;20.80;82.00;;;;;;5094834;28;20446;-48
2022/03/27 10:18:27;;;;;;;29.10;27.50;;;20.80;80.90;;;;;;5094896;28;20457;-48
2022/03/27 10:20:59;;;;;;;30.37;28.57;;;20.80;79.90;;;;;;5095083;28;20816;-47
2022/03/27 10:23:29;;;;;;;30.43;28.97;;;20.90;79.00;;;;;;5094935;28;20449;-48
2022/03/27 10:25:59;;;;;;;30.37;28.63;;;20.90;78.10;;;;;;5094514;28;20454;-48
2022/03/27 10:28:28;;;;;;;29.43;27.73;;;20.90;77.30;;;;;;5094839;28;20462;-47
2022/03/27 10:30:54;;;;;;;29.70;28.10;;;21.00;76.50;;;;;;5094608;28;20849;-48
2022/03/27 10:33:25;;;;;;;28.40;27.00;;;21.00;75.40;;;;;;5094746;28;20876;-49
2022/03/27 10:36:00;;;;;;;28.27;26.80;;;21.00;74.60;;;;;;5094400;28;20462;-48
2022/03/27 10:38:50;;;;;;;28.53;27.03;;;21.10;73.70;;;;;;5094529;28;20438;-49
2022/03/27 10:41:20;;;;;;;28.60;26.87;;;21.10;72.60;;;;;;5094520;28;20447;-47
2022/03/27 10:43:52;;;;;;;27.10;25.80;;;21.10;71.80;;;;;;5094810;28;20448;-50
2022/03/27 10:46:22;;;;;;;27.40;25.90;;;21.10;71.00;;;;;;5094278;28;21085;-48
2022/03/27 10:48:50;;;;;;;26.60;25.30;;;21.10;70.30;;;;;;5094478;28;20443;-49
2022/03/27 10:51:42;;;;;;;28.43;27.13;;;21.20;69.60;;;;;;5094362;28;20478;-50
2022/03/27 10:54:11;;;;;;;29.33;27.80;;;21.20;68.60;;;;;;5069658;28;20461;-48
2022/03/27 10:56:41;;;;;;;28.27;26.87;;;21.30;67.90;;;;;;5093934;28;20825;-47
2022/03/27 10:59:14;;;;;;;29.80;28.20;;;21.30;67.10;;;;;;5094174;28;21005;-48
2022/03/27 11:01:43;;;;;;;29.90;28.40;;;21.40;66.40;;;;;;5094084;28;20439;-48
2022/03/27 11:04:11;;;;;;;30.50;29.20;;;21.40;65.60;;;;;;5094092;28;20439;-49
2022/03/27 11:06:39;;;;;;;29.17;27.90;;;21.50;64.90;;;;;;5093795;28;20481;-48
2022/03/27 11:09:08;;;;;;;30.23;28.73;;;21.60;65.00;;;;;;5094106;28;20454;-48
2022/03/27 11:12:04;;;;;;;29.17;27.77;;;21.60;63.40;;;;;;5093892;28;20490;-51
2022/03/27 11:15:05;;;;;;;30.03;28.63;;;21.70;62.70;;;;;;5094008;28;20439;-50
2022/03/27 11:17:52;;;;;;;30.00;28.50;;;21.70;61.80;;;;;;5093595;28;20458;-50
2022/03/27 11:20:55;;;;;;;29.77;28.40;;;21.80;61.20;;;;;;5093910;28;20851;-48
2022/03/27 11:23:34;;;;;;;30.03;28.53;;;21.90;61.20;;;;;;5093886;28;20495;-52
2022/03/27 11:26:02;;;;;;;30.10;28.73;;;22.10;59.90;;;;;;5093494;28;20449;-48
2022/03/27 11:28:48;;;;;;;28.50;27.20;;;22.20;59.40;;;;;;5093693;28;20542;-48
2022/03/27 11:31:18;;;;;;;28.43;27.20;;;22.30;58.70;;;;;;5093587;28;20489;-48
2022/03/27 11:34:07;;;;;;;30.50;29.10;;;22.40;58.20;;;;;;5093460;28;20791;-52
2022/03/27 11:36:36;;;;;;;28.13;26.93;;;22.50;57.90;;;;;;5093041;28;20561;-48
2022/03/27 11:39:07;;;;;;;30.90;29.47;;;22.60;57.20;;;;;;5093403;28;20453;-50
2022/03/27 11:41:38;;;;;;;30.80;29.40;;;22.90;56.50;;;;;;5093505;28;20878;-48
2022/03/27 11:44:23;;;;;;;28.60;27.20;;;23.50;55.60;;;;;;5093406;28;20450;-48
2022/03/27 11:46:52;;;;;;;30.30;28.80;;;24.80;52.60;;;;;;5092911;28;21052;-48
2022/03/27 11:49:19;;;;;;;32.00;30.57;;;26.10;49.20;;;;;;5093147;28;21019;-48
2022/03/27 11:51:48;;;;;;;29.23;28.03;;;27.10;46.20;;;;;;5093896;28;20474;-47
2022/03/27 11:54:18;;;;;;;32.33;30.80;;;27.90;43.80;;;;;;5093099;28;20821;-48
2022/03/27 11:56:55;;;;;;;31.87;30.33;;;28.60;41.80;;;;;;5092753;28;20995;-48
2022/03/27 11:59:22;;;;;;;31.80;30.40;;;29.20;40.10;;;;;;5093142;28;20453;-49
2022/03/27 12:01:53;;;;;;;31.27;29.93;;;29.70;38.90;;;;;;5093033;28;20444;-51
2022/03/27 12:04:20;;;;;;;29.47;28.17;;;30.10;37.90;;;;;;5092937;28;20453;-48
2022/03/27 12:06:54;;;;;;;30.70;29.40;;;30.40;37.00;;;;;;5092633;28;20461;-48
2022/03/27 12:09:26;;;;;;;30.93;29.57;;;30.70;36.30;;;;;;5092878;28;20445;-48
2022/03/27 12:12:08;;;;;;;31.60;30.20;;;31.00;35.70;;;;;;5092985;28;20478;-49
2022/03/27 12:14:50;;;;;;;30.43;29.23;;;31.20;35.00;;;;;;5092879;28;20458;-50
2022/03/27 12:17:18;;;;;;;31.03;29.83;;;31.50;34.50;;;;;;5092434;28;20477;-48
2022/03/27 12:19:57;;;;;;;30.83;29.53;;;31.80;34.10;;;;;;5092661;28;21016;-49
2022/03/27 12:22:35;;;;;;;31.13;29.83;;;32.00;33.60;;;;;;5092544;28;20449;-48
2022/03/27 12:25:03;;;;;;;30.27;29.03;;;32.10;33.20;;;;;;5092627;28;20819;-53
2022/03/27 12:30:14;;;;;;;31.83;30.53;;;32.40;32.60;;;;;;5091738;28;20554;-51
2022/03/27 12:32:41;;;;;;;32.33;31.03;;;32.60;32.30;;;;;;5092431;28;20925;-48
2022/03/27 12:35:08;;;;;;;30.10;28.80;;;32.80;32.10;;;;;;5092276;28;20223;-48
2022/03/27 12:37:44;;;;;;;31.87;30.63;;;32.90;31.80;;;;;;5091987;28;20472;-48
2022/03/27 12:40:12;;;;;;;30.70;29.50;;;33.00;31.50;;;;;;5092433;28;20468;-48
2022/03/27 12:42:43;;;;;;;29.43;28.00;;;33.10;31.30;;;;;;5092188;28;20200;-49
2022/03/27 12:45:12;;;;;;;29.17;28.07;;;33.20;31.20;;;;;;5092273;28;20572;-48
2022/03/27 12:47:40;;;;;;;31.43;30.10;;;33.50;31.00;;;;;;5091834;28;20220;-48